createdAt,value
2022-10-01T05:01:52.434Z,6.05
2022-10-01T05:04:19.996Z,5.28
2022-10-01T05:06:47.517Z,5.63
2022-10-01T05:09:15.036Z,5.82
2022-10-01T05:11:42.537Z,5.53
2022-10-01T05:14:10.063Z,4.95
2022-10-01T05:16:38.913Z,4.78
2022-10-01T05:19:07.843Z,4.80
2022-10-01T05:21:35.631Z,4.43
2022-10-01T05:24:03.269Z,4.13
2022-10-01T05:26:32.054Z,3.67
2022-10-01T05:29:00.542Z,4.03
2022-10-01T05:31:28.160Z,4.40
2022-10-01T05:33:55.737Z,4.13
2022-10-01T05:36:24.605Z,3.40
2022-10-01T05:38:52.374Z,4.10
2022-10-01T05:41:19.998Z,4.25
2022-10-01T05:43:49.161Z,4.63
2022-10-01T05:46:16.704Z,4.53
2022-10-01T05:48:44.309Z,4.97
2022-10-01T05:51:15.175Z,4.22
2022-10-01T05:53:50.133Z,4.50
2022-10-01T05:56:17.878Z,4.30
2022-10-01T05:58:46.394Z,4.20
2022-10-01T06:01:13.983Z,4.40
2022-10-01T06:03:41.462Z,4.05
2022-10-01T06:06:08.973Z,4.45
2022-10-01T06:08:37.049Z,3.47
2022-10-01T06:11:06.012Z,4.45
2022-10-01T06:13:33.595Z,4.30
2022-10-01T06:16:01.217Z,4.85
2022-10-01T06:18:28.783Z,4.63
2022-10-01T06:20:56.310Z,4.20
2022-10-01T06:23:23.805Z,4.57
2022-10-01T06:25:51.324Z,4.23
2022-10-01T06:28:20.217Z,4.22
2022-10-01T06:30:47.777Z,4.70
2022-10-01T06:33:16.368Z,4.90
2022-10-01T06:35:44.971Z,4.55
2022-10-01T06:38:12.791Z,4.67
2022-10-01T06:40:40.701Z,4.65
2022-10-01T06:43:08.626Z,4.80
2022-10-01T06:45:39.302Z,4.38
2022-10-01T06:48:07.231Z,4.70
2022-10-01T06:50:35.266Z,4.13
2022-10-01T06:53:02.815Z,4.70
2022-10-01T06:55:31.363Z,4.15
2022-10-01T06:57:59.408Z,3.70
2022-10-01T07:00:27.051Z,4.80
2022-10-01T07:02:56.451Z,4.63
2022-10-01T07:05:23.969Z,4.47
2022-10-01T07:07:51.755Z,4.22
2022-10-01T07:10:20.983Z,4.43
2022-10-01T07:12:49.539Z,4.40
2022-10-01T07:15:17.729Z,4.47
2022-10-01T07:17:45.940Z,4.22
2022-10-01T07:20:17.632Z,4.45
2022-10-01T07:22:45.161Z,4.15
2022-10-01T07:25:12.952Z,4.70
2022-10-01T07:27:40.755Z,4.17
2022-10-01T07:30:08.830Z,4.68
2022-10-01T07:32:36.323Z,4.00
2022-10-01T07:35:05.000Z,3.63
2022-10-01T07:37:33.877Z,3.42
2022-10-01T07:40:06.528Z,3.70
2022-10-01T07:42:35.248Z,4.00
2022-10-01T07:45:04.231Z,3.90
2022-10-01T07:47:31.893Z,3.67
2022-10-01T07:49:59.447Z,3.35
2022-10-01T07:52:26.934Z,3.53
2022-10-01T07:54:55.784Z,3.75
2022-10-01T07:57:23.355Z,3.47
2022-10-01T07:59:55.509Z,3.25
2022-10-01T08:02:23.615Z,3.30
2022-10-01T08:05:08.543Z,3.30
2022-10-01T08:07:36.816Z,3.35
2022-10-01T08:10:06.230Z,2.55
2022-10-01T08:12:34.133Z,2.63
2022-10-01T08:15:02.186Z,2.80
2022-10-01T08:17:29.764Z,2.90
2022-10-01T08:19:57.236Z,2.95
2022-10-01T08:22:24.740Z,3.03
2022-10-01T08:24:52.197Z,2.83
2022-10-01T08:27:21.029Z,3.20
2022-10-01T08:29:48.479Z,2.67
2022-10-01T08:32:15.984Z,2.50
2022-10-01T08:34:43.491Z,2.95
2022-10-01T08:37:10.989Z,2.83
2022-10-01T08:39:38.486Z,3.00
2022-10-01T08:42:08.886Z,2.93
2022-10-01T08:44:41.283Z,3.20
2022-10-01T08:47:11.433Z,2.78
2022-10-01T08:49:42.199Z,2.70
2022-10-01T08:52:15.696Z,2.80
2022-10-01T08:54:45.673Z,2.70
2022-10-01T08:57:14.724Z,3.33
2022-10-01T08:59:44.722Z,3.30
2022-10-01T09:02:19.032Z,3.10
2022-10-01T09:04:46.890Z,3.20
2022-10-01T09:07:21.161Z,2.43
2022-10-01T09:09:56.187Z,3.10
2022-10-01T09:12:29.149Z,3.17
2022-10-01T09:15:12.898Z,3.05
2022-10-01T09:17:45.698Z,3.30
2022-10-01T09:20:18.521Z,3.20
2022-10-01T09:22:51.459Z,3.13
2022-10-01T09:25:25.692Z,3.45
2022-10-01T09:27:57.972Z,3.03
2022-10-01T09:30:27.120Z,2.92
2022-10-01T09:32:56.479Z,2.80
2022-10-01T09:35:36.740Z,2.88
2022-10-01T09:38:06.004Z,2.70
2022-10-01T09:40:39.690Z,3.08
2022-10-01T09:43:09.137Z,2.50
2022-10-01T09:45:38.568Z,2.80
2022-10-01T09:48:14.985Z,2.80
2022-10-01T09:50:45.033Z,2.65
2022-10-01T09:53:16.045Z,2.72
2022-10-01T09:55:45.240Z,3.25
2022-10-01T09:58:14.362Z,3.50
2022-10-01T10:00:44.004Z,3.60
2022-10-01T10:03:11.591Z,3.80
2022-10-01T10:05:43.794Z,4.38
2022-10-01T10:08:13.775Z,4.10
2022-10-01T10:10:48.419Z,4.60
2022-10-01T10:13:19.179Z,3.88
2022-10-01T10:15:52.602Z,5.15
2022-10-01T10:18:26.778Z,4.43
2022-10-01T10:20:54.948Z,4.25
2022-10-01T10:23:23.279Z,4.93
2022-10-01T10:25:55.690Z,5.28
2022-10-01T10:28:24.720Z,4.35
2022-10-01T10:30:54.788Z,4.57
2022-10-01T10:33:22.918Z,5.70
2022-10-01T10:35:58.089Z,5.20
2022-10-01T10:38:26.705Z,4.45
2022-10-01T10:40:54.197Z,5.28
2022-10-01T10:43:22.958Z,4.78
2022-10-01T10:45:56.145Z,4.78
2022-10-01T10:54:01.223Z,3.67
2022-10-01T10:56:28.640Z,7.40
2022-10-01T10:58:56.162Z,4.82
2022-10-01T11:01:26.739Z,5.93
2022-10-01T11:03:57.085Z,4.18
2022-10-01T11:06:27.633Z,2.90
2022-10-01T11:09:00.970Z,2.33
2022-10-01T11:14:23.767Z,2.72
2022-10-01T11:16:55.405Z,2.40
2022-10-01T11:19:32.660Z,2.03
2022-10-01T11:22:08.919Z,1.70
2022-10-01T11:24:50.778Z,1.80
2022-10-01T11:27:22.399Z,1.92
2022-10-01T11:29:53.898Z,1.80
2022-10-01T11:37:35.719Z,2.30
2022-10-01T11:40:04.260Z,1.93
2022-10-01T11:42:34.034Z,1.90
2022-10-01T11:45:04.671Z,1.60
2022-10-01T11:47:34.119Z,1.60
2022-10-01T11:50:04.107Z,1.80
2022-10-01T11:52:36.409Z,1.60
2022-10-01T11:55:23.635Z,1.70
2022-10-01T11:58:10.509Z,1.80
2022-10-01T12:00:39.174Z,1.50
2022-10-01T12:03:07.880Z,2.08
2022-10-01T12:05:35.758Z,1.73
2022-10-01T12:08:09.288Z,2.08
2022-10-01T12:10:39.246Z,1.60
2022-10-01T12:13:11.752Z,1.40
2022-10-01T12:15:43.936Z,1.73
2022-10-01T12:18:14.184Z,1.80
2022-10-01T12:20:42.906Z,1.90
2022-10-01T12:23:15.266Z,1.67
2022-10-01T12:25:49.114Z,1.70
2022-10-01T12:28:20.308Z,1.50
2022-10-01T12:30:51.614Z,1.40
2022-10-01T12:33:28.794Z,1.90
2022-10-01T12:36:03.231Z,1.70
2022-10-01T12:38:43.686Z,1.40
2022-10-01T12:41:18.815Z,1.60
2022-10-01T12:44:03.274Z,1.13
2022-10-01T12:46:34.749Z,1.23
2022-10-01T12:49:09.615Z,1.40
2022-10-01T12:51:41.822Z,1.70
2022-10-01T12:54:42.593Z,1.23
2022-10-01T12:57:18.643Z,1.35
2022-10-01T12:59:57.606Z,1.30
2022-10-01T13:02:41.844Z,1.10
2022-10-01T13:05:19.958Z,1.10
2022-10-01T13:07:56.598Z,1.10
2022-10-01T13:10:32.266Z,0.80
2022-10-01T13:13:02.966Z,1.00
2022-10-01T13:15:32.680Z,1.00
2022-10-01T13:18:06.115Z,0.90
2022-10-01T13:20:38.136Z,0.90
2022-10-01T13:23:09.019Z,1.02
2022-10-01T13:25:39.728Z,1.00
2022-10-01T13:28:13.029Z,1.02
2022-10-01T13:30:47.578Z,1.00
2022-10-01T13:33:26.286Z,1.10
2022-10-01T13:35:55.166Z,1.20
2022-10-01T13:38:40.215Z,1.30
2022-10-01T13:41:16.530Z,1.30
2022-10-01T13:43:57.152Z,1.10
2022-10-01T13:46:26.570Z,1.30
2022-10-01T13:48:54.237Z,1.27
2022-10-01T13:51:21.899Z,1.90
2022-10-01T13:53:52.515Z,1.33
2022-10-01T13:56:30.400Z,1.40
2022-10-01T13:58:59.323Z,1.35
2022-10-01T14:01:31.528Z,1.20
2022-10-01T14:04:05.567Z,1.13
2022-10-01T14:06:39.749Z,1.30
2022-10-01T14:09:11.132Z,1.50
2022-10-01T14:11:56.353Z,1.73
2022-10-01T14:14:45.404Z,1.38
2022-10-01T14:17:13.756Z,1.80
2022-10-01T14:19:46.890Z,1.23
2022-10-01T14:22:18.574Z,1.30
2022-10-01T14:24:56.091Z,1.65
2022-10-01T14:27:25.751Z,1.20
2022-10-01T14:30:00.453Z,1.30
2022-10-01T14:32:34.650Z,1.13
2022-10-01T14:35:06.552Z,1.30
2022-10-01T14:37:38.208Z,1.20
2022-10-01T14:40:14.029Z,1.40
2022-10-01T14:42:41.609Z,1.42
2022-10-01T14:45:17.566Z,1.20
2022-10-01T14:47:45.165Z,1.50
2022-10-01T14:50:13.665Z,1.45
2022-10-01T14:52:45.937Z,1.58
2022-10-01T14:55:14.556Z,1.30
2022-10-01T14:57:43.694Z,1.30
2022-10-01T15:00:15.483Z,1.30
2022-10-01T15:02:47.375Z,1.13
2022-10-01T15:05:24.782Z,1.10
2022-10-01T15:07:52.572Z,1.20
2022-10-01T15:10:20.760Z,1.27
2022-10-01T15:12:50.606Z,1.63
2022-10-01T15:15:19.805Z,1.30
2022-10-01T15:17:49.360Z,1.25
2022-10-01T15:20:17.018Z,1.08
2022-10-01T15:22:45.479Z,1.10
2022-10-01T15:25:18.716Z,0.90
2022-10-01T15:27:46.320Z,1.33
2022-10-01T15:30:15.362Z,1.00
2022-10-01T15:32:42.990Z,1.05
2022-10-01T15:35:13.130Z,1.15
2022-10-01T15:37:41.459Z,0.80
2022-10-01T15:40:21.103Z,1.10
2022-10-01T15:43:08.832Z,0.98
2022-10-01T15:45:36.607Z,1.02
2022-10-01T15:48:04.211Z,1.08
2022-10-01T15:50:36.448Z,1.13
2022-10-01T15:53:06.631Z,1.42
2022-10-01T15:55:35.916Z,1.00
2022-10-01T15:58:05.992Z,1.00
2022-10-01T16:00:37.706Z,1.15
2022-10-01T16:03:05.407Z,0.70
2022-10-01T16:05:37.758Z,0.90
2022-10-01T16:08:05.362Z,0.90
2022-10-01T16:10:34.616Z,1.10
2022-10-01T16:13:28.997Z,0.88
2022-10-01T16:16:15.091Z,0.77
2022-10-01T16:18:43.049Z,1.30
2022-10-01T16:21:12.228Z,0.95
2022-10-01T16:23:43.069Z,0.80
2022-10-01T16:26:32.345Z,0.85
2022-10-01T16:29:01.346Z,0.97
2022-10-01T16:31:29.660Z,0.80
2022-10-01T16:33:57.227Z,0.90
2022-10-01T16:36:26.398Z,0.90
2022-10-01T16:38:53.907Z,1.00
2022-10-01T16:41:23.154Z,0.90
2022-10-01T16:43:50.890Z,1.10
2022-10-01T16:46:18.438Z,1.00
2022-10-01T16:48:47.312Z,1.33
2022-10-01T16:51:14.830Z,1.20
2022-10-01T16:53:43.787Z,1.03
2022-10-01T16:56:11.649Z,1.10
2022-10-01T16:58:39.870Z,0.90
2022-10-01T17:01:08.555Z,1.05
2022-10-01T17:03:36.508Z,1.00
2022-10-01T17:06:04.483Z,1.57
2022-10-01T17:08:31.979Z,1.02
2022-10-01T17:11:01.937Z,1.20
2022-10-01T17:13:30.505Z,1.20
2022-10-01T17:15:58.645Z,1.52
2022-10-01T17:18:26.200Z,1.10
2022-10-01T17:20:53.720Z,1.60
2022-10-01T17:23:22.255Z,1.30
2022-10-01T17:25:49.948Z,1.40
2022-10-01T17:28:19.991Z,1.45
2022-10-01T17:30:48.449Z,1.57
2022-10-01T17:33:18.736Z,1.20
2022-10-01T17:35:48.594Z,1.20
2022-10-01T17:38:16.084Z,1.40
2022-10-01T17:40:45.073Z,1.38
2022-10-01T17:43:12.956Z,1.20
2022-10-01T17:45:42.050Z,1.10
2022-10-01T17:48:09.670Z,1.85
2022-10-01T17:50:43.737Z,1.40
2022-10-01T17:53:11.551Z,1.45
2022-10-01T17:55:40.553Z,1.20
2022-10-01T17:58:08.027Z,1.52
2022-10-01T18:00:35.588Z,1.58
2022-10-01T18:03:04.963Z,1.48
2022-10-01T18:05:32.496Z,1.30
2022-10-01T18:07:59.997Z,1.90
2022-10-01T18:10:27.525Z,1.58
2022-10-01T18:12:55.051Z,1.60
2022-10-01T18:15:24.061Z,1.70
2022-10-01T18:18:48.534Z,1.95
2022-10-01T18:20:42.325Z,1.30
2022-10-01T18:23:09.817Z,1.55
2022-10-01T18:25:37.337Z,1.40
2022-10-01T18:28:04.892Z,1.75
2022-10-01T18:30:32.369Z,1.75
2022-10-01T18:33:01.487Z,1.60
2022-10-01T18:35:30.971Z,1.75
2022-10-01T18:38:03.233Z,1.40
2022-10-01T18:40:33.450Z,1.60
2022-10-01T18:43:03.653Z,1.75
2022-10-01T18:45:47.480Z,1.77
2022-10-01T18:48:27.273Z,1.48
2022-10-01T18:50:59.040Z,2.35
2022-10-01T18:53:53.453Z,2.03
2022-10-01T18:56:26.103Z,1.98
2022-10-01T18:59:08.461Z,1.40
2022-10-01T19:01:40.975Z,1.63
2022-10-01T19:04:23.398Z,1.70
2022-10-01T19:06:58.462Z,1.70
2022-10-01T19:09:34.020Z,1.83
2022-10-01T19:12:10.533Z,2.30
2022-10-01T19:14:42.823Z,1.58
2022-10-01T19:17:15.449Z,1.77
2022-10-01T19:19:47.220Z,1.80
2022-10-01T19:22:18.855Z,1.70
2022-10-01T19:24:54.381Z,1.83
2022-10-01T19:27:30.902Z,1.42
2022-10-01T19:30:02.665Z,1.48
2022-10-01T19:32:34.496Z,1.83
2022-10-01T19:35:04.098Z,1.65
2022-10-01T19:37:36.604Z,1.43
2022-10-01T19:40:07.988Z,1.65
2022-10-01T19:42:39.214Z,1.40
2022-10-01T19:45:15.585Z,1.55
2022-10-01T19:47:46.927Z,1.63
2022-10-01T19:50:18.149Z,1.47
2022-10-01T19:52:50.496Z,2.10
2022-10-01T19:55:19.486Z,1.90
2022-10-01T19:57:48.798Z,2.13
2022-10-01T20:00:19.790Z,1.95
2022-10-01T20:02:50.366Z,1.83
2022-10-01T20:05:20.078Z,1.50
2022-10-01T20:07:48.212Z,1.65
2022-10-01T20:10:20.050Z,1.80
2022-10-01T20:12:52.603Z,2.35
2022-10-01T20:15:26.989Z,1.60
2022-10-01T20:18:00.203Z,1.73
2022-10-01T20:20:34.349Z,1.60
2022-10-01T20:23:09.356Z,1.55
2022-10-01T20:25:43.206Z,1.45
2022-10-01T20:28:16.168Z,1.60
2022-10-01T20:30:47.104Z,1.70
2022-10-01T20:33:17.175Z,1.48
2022-10-01T20:35:49.443Z,1.55
2022-10-01T20:38:19.900Z,1.17
2022-10-01T20:40:49.730Z,1.27
2022-10-01T20:43:20.714Z,1.75
2022-10-01T20:45:50.144Z,1.60
2022-10-01T20:48:19.296Z,1.60
2022-10-01T20:50:48.424Z,1.60
2022-10-01T20:53:22.974Z,1.70
2022-10-01T20:55:53.805Z,1.55
2022-10-01T20:58:24.624Z,1.70
2022-10-01T21:00:54.374Z,1.50
2022-10-01T21:03:24.979Z,1.75
2022-10-01T21:05:55.088Z,1.73
2022-10-01T21:08:28.681Z,1.77
2022-10-01T21:10:57.778Z,1.40
2022-10-01T21:13:30.065Z,2.08
2022-10-01T21:16:03.133Z,1.77
2022-10-01T21:18:36.244Z,1.87
2022-10-01T21:21:10.313Z,1.30
2022-10-01T21:23:45.831Z,1.45
2022-10-01T21:26:16.312Z,1.48
2022-10-01T21:28:57.653Z,1.70
2022-10-01T21:31:31.034Z,1.93
2022-10-01T21:34:02.896Z,1.80
2022-10-01T21:36:34.029Z,1.42
2022-10-01T21:39:05.651Z,1.40
2022-10-01T21:41:40.038Z,1.73
2022-10-01T21:44:18.525Z,1.60
2022-10-01T21:46:51.068Z,1.33
2022-10-01T21:49:24.576Z,1.58
2022-10-01T21:51:58.517Z,1.88
2022-10-01T21:54:44.631Z,1.50
2022-10-01T21:57:20.362Z,1.40
2022-10-01T21:59:59.558Z,1.52
2022-10-01T22:02:33.646Z,1.50
2022-10-01T22:05:05.548Z,1.60
2022-10-01T22:07:35.375Z,1.80
2022-10-01T22:10:07.419Z,1.30
2022-10-01T22:12:36.193Z,1.40
2022-10-01T22:15:07.035Z,1.63
2022-10-01T22:17:35.060Z,1.58
2022-10-01T22:20:03.630Z,1.77
2022-10-01T22:22:32.444Z,2.03
2022-10-01T22:25:00.851Z,1.40
2022-10-01T22:27:32.121Z,1.90
2022-10-01T22:30:01.198Z,1.63
2022-10-01T22:32:34.128Z,1.30
2022-10-01T22:35:04.091Z,1.43
2022-10-01T22:37:34.764Z,1.50
2022-10-01T22:40:05.715Z,1.75
2022-10-01T22:42:35.438Z,1.63
2022-10-01T22:45:07.253Z,1.55
2022-10-01T22:47:40.226Z,1.17
2022-10-01T22:50:14.108Z,1.50
2022-10-01T22:52:46.092Z,1.23
2022-10-01T22:55:21.049Z,1.17
2022-10-01T22:57:57.952Z,1.33
2022-10-01T23:00:25.835Z,1.50
2022-10-01T23:03:02.867Z,1.48
2022-10-01T23:05:40.126Z,1.25
2022-10-01T23:08:13.034Z,1.23
2022-10-01T23:10:42.835Z,1.50
2022-10-01T23:13:16.953Z,1.57
2022-10-01T23:15:49.014Z,1.70
2022-10-01T23:18:25.026Z,1.35
2022-10-01T23:21:05.473Z,1.58
2022-10-01T23:23:33.534Z,1.30
2022-10-01T23:26:11.160Z,1.30
2022-10-01T23:28:45.813Z,1.40
2022-10-01T23:31:18.844Z,1.50
2022-10-01T23:33:53.596Z,1.23
2022-10-01T23:36:25.868Z,1.20
2022-10-01T23:39:11.233Z,1.40
2022-10-01T23:41:41.877Z,1.67
2022-10-01T23:44:11.760Z,1.42
2022-10-01T23:46:40.789Z,1.95
2022-10-01T23:49:13.521Z,1.30
2022-10-01T23:51:44.133Z,1.40
2022-10-01T23:54:15.635Z,1.60
2022-10-01T23:56:50.550Z,1.95
2022-10-01T23:59:21.998Z,1.65
